Latest Weather Observations for Snowtown

IDS60801

Issued at 8:35 pm CST Monday 1 September 2014 (issued every 30 minutes, with the page automatically refreshed every 10 minutes)

About weather observations | Map of weather stations | Latest weather observations for SA | Other Formats
Station Details ID: 021133 Name: RAYVILLE PARK Lat: -33.77 Lon: 138.22 Height: 109.1 m
Data from the previous 72 hours. | See also: Recent months at Snowtown
Date/Time
CST
Temp
°C
App
Temp
°C
Dew
Point
Rel
Hum
%
Delta-T
°C
Wind Press
QNH
hPa
Press
MSL
hPa
Rain
since 9 am
mm
Dir
 
Spd
km/h
Gust
km/h
Spd
kts
Gust
kts
01/08:30pm 7.6 3.2 6.4 92 0.5 SW 19 26 10 14 1019.7 1019.7 1.2
01/08:00pm 7.6 4.7 6.5 93 0.5 SW 11 15 6 8 1019.3 1019.3 1.2
01/07:30pm 8.6 1.7 7.2 91 0.7 SW 33 59 18 32 1019.3 1019.3 1.0
01/07:24pm 8.6 2.7 7.5 93 0.5 SW 28 54 15 29 1019.2 1019.2 0.8
01/07:00pm 7.9 4.7 6.7 92 0.6 W 13 15 7 8 1018.3 1018.3 0.8
01/06:30pm 9.7 5.0 7.8 88 0.9 WSW 22 33 12 18 1017.8 1017.8 0.8
01/06:00pm 10.1 6.1 6.8 80 1.6 WSW 17 20 9 11 1017.6 1017.6 0.8
01/05:30pm 11.1 7.2 7.0 76 2.0 SW 17 24 9 13 1016.9 1016.9 0.8
01/05:00pm 12.7 7.5 7.4 70 2.6 WSW 24 32 13 17 1016.4 1016.4 0.8
01/04:30pm 13.3 8.2 7.5 68 2.8 SW 24 35 13 19 1015.9 1015.9 0.8
01/04:00pm 14.6 9.4 7.4 62 3.6 SW 24 39 13 21 1015.4 1015.4 0.8
01/03:30pm 14.5 9.1 8.2 66 3.2 SW 26 39 14 21 1015.3 1015.3 0.8
01/03:00pm 15.6 10.2 8.1 61 3.8 SW 26 33 14 18 1014.7 1014.7 0.6
01/02:30pm 15.2 8.7 8.2 63 3.5 SW 32 43 17 23 1014.6 1014.6 0.6
01/02:00pm 15.1 9.8 9.9 71 2.7 WSW 28 37 15 20 1014.7 1014.7 0.6
01/01:43pm 15.1 9.6 9.0 67 3.1 WSW 28 48 15 26 1014.5 1014.5 0.6
01/01:30pm 15.2 9.8 9.6 69 2.9 WSW 28 37 15 20 1014.4 1014.4 0.6
01/01:00pm 14.8 9.4 9.4 70 2.8 WSW 28 43 15 23 1014.6 1014.6 0.6
01/12:59pm 15.2 9.7 9.3 68 3.1 WSW 28 43 15 23 1014.6 1014.6 0.6
01/12:30pm 14.8 11.7 11.6 81 1.7 WSW 19 24 10 13 1014.8 1014.8 0.6
01/12:00pm 13.3 10.3 10.8 85 1.3 SW 17 22 9 12 1015.4 1015.4 0.6
01/11:30am 12.7 9.4 10.8 88 1.0 WSW 19 24 10 13 1015.5 1015.5 0.6
01/11:00am 11.7 9.5 10.8 94 0.5 SSW 13 15 7 8 1015.4 1015.4 0.6
01/10:30am 11.2 7.7 10.3 94 0.5 SSW 19 24 10 13 1015.3 1015.3 0.6
01/10:00am 11.4 7.8 10.6 95 0.4 SSW 20 32 11 17 1015.2 1015.2 0.6
01/09:30am 11.9 8.1 11.0 94 0.5 SW 22 28 12 15 1015.0 1015.0 0.6
01/09:00am 12.5 10.4 11.1 91 0.7 W 13 17 7 9 1014.5 1014.6 3.2
01/08:30am 12.1 11.2 11.3 95 0.4 NNW 7 11 4 6 1014.3 1014.4 3.2
01/08:00am 11.5 10.5 11.0 97 0.3 N 7 11 4 6 1013.9 1014.0 3.2
01/07:30am 11.2 9.4 10.9 98 0.2 NNE 11 17 6 9 1013.8 1013.9 3.2
01/07:00am 11.1 8.5 10.8 98 0.2 N 15 17 8 9 1014.2 1014.3 3.0
01/06:30am 10.9 10.7 10.6 98 0.2 W 2 7 1 4 1013.5 1013.6 2.8
01/06:00am 10.8 11.0 10.5 98 0.2 SW 0 0 0 0 1013.2 1013.3 2.6
01/05:30am 10.8 11.0 10.5 98 0.2 CALM 0 0 0 0 1012.9 1012.9 2.6
01/05:00am 10.9 9.9 10.4 97 0.3 WSW 6 7 3 4 1012.7 1012.8 2.2
01/04:30am 11.1 11.3 10.6 97 0.3 CALM 0 0 0 0 1012.7 1012.8 1.6
01/04:00am 11.3 9.8 10.7 96 0.3 SW 9 11 5 6 1012.6 1012.7 1.4
01/03:30am 11.4 10.3 10.6 95 0.4 S 7 9 4 5 1012.1 1012.2 1.2
01/03:00am 11.8 10.5 11.2 96 0.3 WSW 9 13 5 7 1012.9 1012.9 0.6
01/02:30am 12.0 10.1 11.7 98 0.2 WSW 13 19 7 10 1012.2 1012.3 0.4
01/02:00am 11.5 10.6 11.2 98 0.2 NNW 7 11 4 6 1011.9 1012.0 0.2
01/01:30am 10.6 8.3 10.3 98 0.2 N 13 15 7 8 1012.5 1012.6 0.0
01/01:00am 10.3 9.1 9.7 96 0.3 ESE 6 13 3 7 1012.4 1012.5 0.0
01/12:30am 10.7 10.7 9.8 94 0.5 CALM 0 0 0 0 1013.0 1013.1 0.0
01/12:00am 11.5 10.5 10.2 92 0.7 ESE 6 11 3 6 1013.1 1013.2 0.0
 
Date/Time
CST
Temp
°C
App
Temp
°C
Dew
Point
Rel
Hum
%
Delta-T
°C
Wind Press
QNH
hPa
Press
MSL
hPa
Rain
since 9 am
mm
Dir
 
Spd
km/h
Gust
km/h
Spd
kts
Gust
kts
31/11:30pm 13.2 10.9 11.6 90 0.9 SSW 15 20 8 11 1012.6 1012.7 0.0
31/11:00pm 12.7 9.7 9.3 80 1.7 S 15 20 8 11 1011.9 1012.0 0.0
31/10:30pm 13.3 9.4 8.6 73 2.4 SW 19 24 10 13 1011.8 1011.9 0.0
31/10:00pm 10.7 7.7 6.1 73 2.2 S 11 17 6 9 1011.7 1011.8 0.0
31/09:30pm 11.0 7.6 6.0 71 2.3 WSW 13 17 7 9 1011.3 1011.4 0.0
31/09:00pm 11.9 8.7 5.3 64 3.1 SW 11 15 6 8 1011.5 1011.6 0.0
31/08:30pm 12.3 11.0 6.1 66 2.9 SSW 2 7 1 4 1011.2 1011.3 0.0
31/08:00pm 13.0 11.0 6.1 63 3.3 WNW 6 9 3 5 1011.1 1011.2 0.0
31/07:30pm 13.7 11.7 7.0 64 3.3 NNW 7 15 4 8 1011.0 1011.1 0.0
31/07:00pm 15.0 13.1 7.5 61 3.7 N 7 9 4 5 1010.5 1010.6 0.0
31/06:30pm 16.3 11.8 5.9 50 5.1 N 19 22 10 12 1010.6 1010.7 0.0
31/06:00pm 17.8 13.2 5.4 44 6.0 N 19 24 10 13 1010.8 1010.9 0.0
31/05:30pm 18.2 14.3 7.0 48 5.6 N 17 22 9 12 1010.5 1010.6 0.0
31/05:00pm 18.4 14.7 7.8 50 5.4 N 17 19 9 10 1010.4 1010.5 0.0
31/04:30pm 20.0 15.5 7.1 43 6.6 N 20 26 11 14 1010.4 1010.5 0.0
31/04:00pm 21.2 15.5 6.7 39 7.4 N 26 33 14 18 1010.4 1010.5 0.0
31/03:30pm 22.4 16.0 5.4 33 8.5 NNE 28 37 15 20 1010.4 1010.5 0.0
31/03:05pm 22.5 15.8 5.4 33 8.6 N 30 48 16 26 1011.2 1011.3 0.0
31/03:00pm 22.8 15.6 4.8 31 9.0 N 32 48 17 26 1011.3 1011.4 0.0
31/02:30pm 21.6 16.4 7.1 39 7.5 N 24 33 13 18 1011.8 1011.9 0.0
31/02:00pm 21.3 14.3 4.0 32 8.4 NNW 30 46 16 25 1012.2 1012.3 0.0
31/01:30pm 21.8 13.7 3.0 29 9.0 NNW 35 44 19 24 1012.6 1012.7 0.0
31/01:00pm 22.2 14.8 5.2 33 8.5 N 33 44 18 24 1013.3 1013.4 0.0
31/12:30pm 20.5 13.0 3.3 32 8.2 N 32 43 17 23 1013.9 1014.0 0.0
31/12:00pm 21.8 12.5 3.0 29 9.0 NNW 41 56 22 30 1014.5 1014.6 0.0
31/11:35am 21.0 13.2 2.8 30 8.6 NNW 33 52 18 28 1014.9 1015.0 0.0
31/11:30am 22.0 14.6 5.0 33 8.4 NNW 33 41 18 22 1015.0 1015.1 0.0
31/11:00am 19.1 12.4 7.5 47 5.9 N 32 41 17 22 1015.2 1015.3 0.0
31/10:30am 18.0 12.7 8.3 53 5.0 N 26 33 14 18 1015.9 1016.0 0.0
31/10:00am 15.5 9.7 6.2 54 4.5 N 26 37 14 20 1016.3 1016.4 0.0
31/09:30am 13.5 8.2 6.8 64 3.2 N 24 32 13 17 1016.5 1016.6 0.0
31/09:00am 12.8 8.2 6.4 65 3.1 N 20 28 11 15 1016.8 1016.9 0.0
31/08:30am 11.6 6.4 5.3 65 2.9 N 22 28 12 15 1016.9 1017.0 0.0
31/08:00am 10.5 6.3 5.7 72 2.2 N 17 20 9 11 1016.8 1016.9 0.0
31/07:30am 9.8 5.4 5.0 72 2.2 NNE 17 20 9 11 1016.6 1016.7 0.0
31/07:00am 7.7 4.9 3.4 74 1.8 ENE 7 9 4 5 1016.9 1017.0 0.0
31/06:30am 11.3 5.9 2.3 54 3.9 N 20 24 11 13 1016.5 1016.6 0.0
31/06:00am 10.1 4.7 2.7 60 3.2 N 20 26 11 14 1015.8 1015.9 0.0
31/05:30am 9.3 3.3 3.1 65 2.7 N 24 28 13 15 1015.6 1015.7 0.0
31/05:00am 8.2 3.0 3.7 73 1.9 NNE 20 24 11 13 1015.7 1015.8 0.0
31/04:30am 6.2 1.5 3.2 81 1.3 NNE 17 22 9 12 1015.8 1015.9 0.0
31/04:00am 5.9 1.5 2.5 79 1.4 NNE 15 20 8 11 1015.7 1015.8 0.0
31/03:30am 8.3 2.9 2.3 66 2.5 N 20 24 11 13 1015.9 1016.0 0.0
31/03:00am 9.0 3.3 2.6 64 2.7 N 22 24 12 13 1016.2 1016.3 0.0
31/02:30am 9.5 3.4 3.0 64 2.8 N 24 28 13 15 1016.6 1016.7 0.0
31/02:00am 6.9 1.3 3.7 80 1.4 N 22 24 12 13 1017.0 1017.1 0.0
31/01:30am 5.3 0.7 3.8 90 0.6 N 17 20 9 11 1017.2 1017.3 0.0
31/01:00am 5.7 1.5 4.0 89 0.7 N 15 17 8 9 1017.3 1017.4 0.0
31/12:30am 6.2 2.2 4.7 90 0.7 N 15 19 8 10 1017.4 1017.5 0.0
31/12:00am 5.9 3.0 4.7 92 0.5 N 9 13 5 7 1018.0 1018.1 0.0
 
Date/Time
CST
Temp
°C
App
Temp
°C
Dew
Point
Rel
Hum
%
Delta-T
°C
Wind Press
QNH
hPa
Press
MSL
hPa
Rain
since 9 am
mm
Dir
 
Spd
km/h
Gust
km/h
Spd
kts
Gust
kts
30/11:30pm 5.4 2.5 4.4 93 0.4 N 9 11 5 6 1018.2 1018.3 0.0
30/11:00pm 5.4 2.5 4.4 93 0.4 N 9 11 5 6 1018.4 1018.5 0.0
30/10:30pm 5.2 1.8 4.0 92 0.5 N 11 11 6 6 1018.7 1018.8 0.0
30/10:00pm 5.6 2.3 4.4 92 0.5 N 11 13 6 7 1018.9 1019.0 0.0
30/09:30pm 5.7 2.0 4.5 92 0.5 N 13 15 7 8 1019.0 1019.1 0.0
30/09:00pm 6.7 3.5 5.0 89 0.7 N 11 13 6 7 1019.1 1019.2 0.0
30/08:30pm 6.8 4.0 5.1 89 0.7 NNW 9 11 5 6 1019.1 1019.2 0.0
30/08:00pm 8.5 5.8 5.4 81 1.4 NNW 9 11 5 6 1019.2 1019.3 0.0
30/07:30pm 8.1 5.5 6.1 87 0.9 NNW 9 13 5 7 1019.2 1019.3 0.0
30/07:00pm 8.5 4.8 6.5 87 0.9 NNW 15 17 8 9 1019.1 1019.2 0.0
30/06:30pm 9.3 6.2 7.3 87 0.9 N 13 15 7 8 1019.2 1019.3 0.0
30/06:00pm 11.0 8.6 8.6 85 1.2 N 11 13 6 7 1019.0 1019.1 0.0
30/05:30pm 13.7 11.7 10.3 80 1.8 N 11 13 6 7 1018.9 1019.0 0.0
30/05:00pm 17.3 15.7 11.6 69 3.1 NNE 11 13 6 7 1018.8 1018.9 0.0
30/04:30pm 20.0 17.6 9.9 52 5.4 N 13 17 7 9 1018.9 1019.0 0.0
30/04:00pm 21.8 17.7 6.1 36 8.0 N 17 22 9 12 1019.2 1019.3 0.0
30/03:30pm 22.3 18.6 8.1 40 7.5 N 17 22 9 12 1019.1 1019.2 0.0
30/03:00pm 22.4 18.0 4.9 32 8.7 N 17 24 9 13 1019.4 1019.5 0.0
30/02:30pm 22.7 18.0 5.2 32 8.7 N 19 28 10 15 1019.6 1019.7 0.0
30/02:00pm 23.0 18.4 6.3 34 8.6 N 20 30 11 16 1019.9 1020.0 0.0
30/01:30pm 22.5 18.7 7.5 38 7.8 N 17 22 9 12 1020.5 1020.6 0.0
30/01:00pm 21.9 17.0 4.9 33 8.4 NNW 20 32 11 17 1020.8 1021.0 0.0
30/12:30pm 22.5 18.2 7.9 39 7.7 NNW 20 28 11 15 1021.5 1021.7 0.0
30/12:00pm 21.6 17.1 7.1 39 7.5 NNW 20 30 11 16 1022.0 1022.2 0.0
30/11:30am 20.8 18.1 10.3 51 5.7 N 15 20 8 11 1022.5 1022.6 0.0
30/11:00am 20.0 17.0 10.7 55 5.1 NNE 17 22 9 12 1023.0 1023.1 0.0
30/10:30am 18.9 14.9 10.5 58 4.5 N 22 28 12 15 1023.4 1023.5 0.0
30/10:00am 17.3 13.1 9.7 61 4.0 N 22 28 12 15 1023.6 1023.7 0.0
30/09:30am 15.8 13.3 11.0 73 2.6 N 15 19 8 10 1023.8 1023.9 0.0
30/09:00am 13.3 11.8 10.7 84 1.4 N 9 13 5 7 1024.2 1024.3 0.0
30/08:30am 10.4 8.3 8.2 86 1.1 N 9 13 5 7 1024.3 1024.4 0.0
30/08:00am 8.0 5.6 6.9 93 0.5 N 9 11 5 6 1024.2 1024.3 0.0
30/07:30am 5.4 2.1 4.7 95 0.3 N 11 13 6 7 1023.9 1024.0 0.0
30/07:00am 3.6 -1.1 2.9 95 0.3 N 17 19 9 10 1023.8 1023.9 0.0
30/06:30am 3.2 -1.6 2.6 96 0.2 N 17 19 9 10 1023.9 1024.0 0.0
30/06:00am 3.3 -0.8 2.4 94 0.4 N 13 17 7 9 1023.6 1023.7 0.0
30/05:30am 3.2 -0.9 2.2 93 0.4 N 13 17 7 9 1023.6 1023.7 0.0
30/05:00am 4.5 1.0 3.3 92 0.5 NW 11 13 6 7 1023.7 1023.8 0.0
30/04:30am 3.3 0.0 2.4 94 0.4 NW 9 9 5 5 1023.6 1023.7 0.0
30/04:00am 3.5 0.8 2.8 95 0.3 NW 6 7 3 4 1023.4 1023.5 0.0
30/03:30am 3.5 0.2 2.3 92 0.5 NW 9 11 5 6 1023.4 1023.5 0.0
30/03:00am 4.0 0.4 3.0 93 0.4 NW 11 13 6 7 1023.6 1023.7 0.0
30/02:30am 4.1 0.9 3.1 93 0.4 NW 9 11 5 6 1023.8 1023.9 0.0
30/02:00am 4.0 1.2 3.3 95 0.3 NW 7 7 4 4 1024.1 1024.2 0.0
30/01:30am 3.9 1.1 3.2 95 0.3 NW 7 7 4 4 1024.4 1024.5 0.0
30/01:00am 4.4 1.0 3.8 96 0.3 NW 11 13 6 7 1024.7 1024.8 0.0
30/12:30am 4.6 1.6 3.9 95 0.3 NW 9 11 5 6 1024.7 1024.8 0.0
30/12:00am 5.4 1.8 5.0 97 0.2 NW 13 15 7 8 1024.8 1024.9 0.0
 
Date/Time
CST
Temp
°C
App
Temp
°C
Dew
Point
Rel
Hum
%
Delta-T
°C
Wind Press
QNH
hPa
Press
MSL
hPa
Rain
since 9 am
mm
Dir
 
Spd
km/h
Gust
km/h
Spd
kts
Gust
kts
29/11:30pm 5.2 2.3 4.6 96 0.3 WNW 9 11 5 6 1024.9 1025.0 0.0
29/11:00pm 5.5 3.0 4.9 96 0.3 W 7 11 4 6 1024.9 1025.0 0.0
29/10:30pm 6.1 3.7 5.2 94 0.4 WSW 7 9 4 5 1025.1 1025.2 0.0
29/10:00pm 6.8 5.9 5.9 94 0.4 CALM 0 0 0 0 1025.2 1025.3 0.0
29/09:30pm 6.8 5.7 5.3 90 0.7 CALM 0 0 0 0 1025.4 1025.5 0.0
29/09:00pm 8.2 6.6 6.2 87 0.9 WSW 4 13 2 7 1025.3 1025.4 0.0

Other Formats:

Comma delimited format used in spreadsheet applications
http://www.bom.gov.au/fwo/IDS60801/IDS60801.95670.axf

JavaScript Object Notation format (JSON) in row-major order
http://www.bom.gov.au/fwo/IDS60801/IDS60801.95670.json